sensor_id;sensor_type;location;lat;lon;timestamp;temperature;humidity
4429;DHT22;2227;47.810;8.810;2023-06-22T03:50:18;19.00;99.90
4429;DHT22;2227;47.810;8.810;2023-06-22T03:52:47;18.90;99.90
4429;DHT22;2227;47.810;8.810;2023-06-22T03:55:13;18.90;99.90
4429;DHT22;2227;47.810;8.810;2023-06-22T03:57:40;18.90;99.90
4429;DHT22;2227;47.810;8.810;2023-06-22T04:00:07;18.70;99.90
4429;DHT22;2227;47.810;8.810;2023-06-22T04:02:34;18.70;99.90
4429;DHT22;2227;47.810;8.810;2023-06-22T04:05:01;18.60;99.90
4429;DHT22;2227;47.810;8.810;2023-06-22T04:07:30;18.70;99.90
4429;DHT22;2227;47.810;8.810;2023-06-22T04:09:57;18.70;99.90
4429;DHT22;2227;47.810;8.810;2023-06-22T04:12:24;18.80;99.90
4429;DHT22;2227;47.810;8.810;2023-06-22T04:14:50;18.80;99.90
4429;DHT22;2227;47.810;8.810;2023-06-22T04:17:17;18.90;99.90
4429;DHT22;2227;47.810;8.810;2023-06-22T04:19:45;19.00;99.90
4429;DHT22;2227;47.810;8.810;2023-06-22T04:22:12;19.00;99.90
4429;DHT22;2227;47.810;8.810;2023-06-22T04:24:39;19.10;99.90
4429;DHT22;2227;47.810;8.810;2023-06-22T04:27:06;19.10;99.90
4429;DHT22;2227;47.810;8.810;2023-06-22T04:29:32;19.20;99.90
4429;DHT22;2227;47.810;8.810;2023-06-22T04:31:59;19.20;99.90
4429;DHT22;2227;47.810;8.810;2023-06-22T04:34:29;19.30;99.90
4429;DHT22;2227;47.810;8.810;2023-06-22T04:36:56;19.40;99.90
4429;DHT22;2227;47.810;8.810;2023-06-22T04:39:24;19.40;99.90
4429;DHT22;2227;47.810;8.810;2023-06-22T04:41:50;19.40;99.90
4429;DHT22;2227;47.810;8.810;2023-06-22T04:44:18;19.40;99.90
4429;DHT22;2227;47.810;8.810;2023-06-22T04:46:56;19.50;99.90
4429;DHT22;2227;47.810;8.810;2023-06-22T04:49:36;19.50;99.90
4429;DHT22;2227;47.810;8.810;2023-06-22T04:52:08;19.50;99.90
4429;DHT22;2227;47.810;8.810;2023-06-22T04:54:36;19.50;99.90
4429;DHT22;2227;47.810;8.810;2023-06-22T04:57:05;19.60;99.90
4429;DHT22;2227;47.810;8.810;2023-06-22T04:59:37;19.60;99.90
4429;DHT22;2227;47.810;8.810;2023-06-22T05:02:05;19.60;99.90
4429;DHT22;2227;47.810;8.810;2023-06-22T05:04:32;19.70;99.90
4429;DHT22;2227;47.810;8.810;2023-06-22T05:07:00;19.80;99.90
4429;DHT22;2227;47.810;8.810;2023-06-22T05:09:27;19.90;99.90
4429;DHT22;2227;47.810;8.810;2023-06-22T05:11:54;19.90;99.90
4429;DHT22;2227;47.810;8.810;2023-06-22T05:14:21;20.10;99.90
4429;DHT22;2227;47.810;8.810;2023-06-22T05:16:48;20.20;99.90
4429;DHT22;2227;47.810;8.810;2023-06-22T05:19:16;20.20;99.90
4429;DHT22;2227;47.810;8.810;2023-06-22T05:21:43;20.30;99.90
4429;DHT22;2227;47.810;8.810;2023-06-22T05:24:09;20.30;99.90
4429;DHT22;2227;47.810;8.810;2023-06-22T05:26:36;20.40;99.90
4429;DHT22;2227;47.810;8.810;2023-06-22T05:29:21;20.50;99.90
4429;DHT22;2227;47.810;8.810;2023-06-22T05:31:49;20.50;99.90
4429;DHT22;2227;47.810;8.810;2023-06-22T05:34:33;20.60;99.90
4429;DHT22;2227;47.810;8.810;2023-06-22T05:37:01;20.60;99.90
4429;DHT22;2227;47.810;8.810;2023-06-22T05:39:28;20.70;99.90
4429;DHT22;2227;47.810;8.810;2023-06-22T05:41:54;20.80;99.90
4429;DHT22;2227;47.810;8.810;2023-06-22T05:44:21;20.90;99.90
4429;DHT22;2227;47.810;8.810;2023-06-22T05:46:48;21.00;99.90
4429;DHT22;2227;47.810;8.810;2023-06-22T05:49:15;21.10;99.90
4429;DHT22;2227;47.810;8.810;2023-06-22T05:51:42;21.20;99.90
4429;DHT22;2227;47.810;8.810;2023-06-22T05:54:09;21.20;99.90
4429;DHT22;2227;47.810;8.810;2023-06-22T05:56:36;21.20;99.90
4429;DHT22;2227;47.810;8.810;2023-06-22T05:59:04;21.30;99.90
4429;DHT22;2227;47.810;8.810;2023-06-22T06:01:31;21.40;99.90
4429;DHT22;2227;47.810;8.810;2023-06-22T06:04:03;21.50;99.90
4429;DHT22;2227;47.810;8.810;2023-06-22T06:06:31;21.60;99.90
4429;DHT22;2227;47.810;8.810;2023-06-22T06:08:58;21.70;99.90
4429;DHT22;2227;47.810;8.810;2023-06-22T06:11:26;21.70;99.90
4429;DHT22;2227;47.810;8.810;2023-06-22T06:13:52;21.70;99.90
4429;DHT22;2227;47.810;8.810;2023-06-22T06:16:19;21.90;99.90
4429;DHT22;2227;47.810;8.810;2023-06-22T06:18:46;21.90;99.90
4429;DHT22;2227;47.810;8.810;2023-06-22T06:21:15;21.90;99.90
4429;DHT22;2227;47.810;8.810;2023-06-22T06:23:42;22.00;99.90
4429;DHT22;2227;47.810;8.810;2023-06-22T06:26:09;22.20;99.90
4429;DHT22;2227;47.810;8.810;2023-06-22T06:28:35;22.30;99.90
4429;DHT22;2227;47.810;8.810;2023-06-22T06:31:02;22.40;99.90
4429;DHT22;2227;47.810;8.810;2023-06-22T06:33:33;22.40;99.90
4429;DHT22;2227;47.810;8.810;2023-06-22T06:36:00;22.50;99.90
4429;DHT22;2227;47.810;8.810;2023-06-22T06:38:33;22.50;99.90
4429;DHT22;2227;47.810;8.810;2023-06-22T06:41:00;22.60;99.90
4429;DHT22;2227;47.810;8.810;2023-06-22T06:43:26;22.60;99.90
4429;DHT22;2227;47.810;8.810;2023-06-22T06:45:53;22.70;99.90
4429;DHT22;2227;47.810;8.810;2023-06-22T06:48:20;22.90;99.90
4429;DHT22;2227;47.810;8.810;2023-06-22T06:50:47;23.00;99.90
4429;DHT22;2227;47.810;8.810;2023-06-22T06:53:13;23.00;99.90
4429;DHT22;2227;47.810;8.810;2023-06-22T06:55:40;23.10;99.90
4429;DHT22;2227;47.810;8.810;2023-06-22T06:58:07;23.10;99.90
4429;DHT22;2227;47.810;8.810;2023-06-22T07:00:36;23.30;99.90
4429;DHT22;2227;47.810;8.810;2023-06-22T07:03:03;23.30;99.90
4429;DHT22;2227;47.810;8.810;2023-06-22T07:05:30;23.30;99.90
4429;DHT22;2227;47.810;8.810;2023-06-22T07:07:57;23.40;99.90
4429;DHT22;2227;47.810;8.810;2023-06-22T07:10:24;23.50;99.90
4429;DHT22;2227;47.810;8.810;2023-06-22T07:12:50;23.50;99.90
4429;DHT22;2227;47.810;8.810;2023-06-22T07:15:17;23.50;99.90
4429;DHT22;2227;47.810;8.810;2023-06-22T07:17:44;23.50;99.90
4429;DHT22;2227;47.810;8.810;2023-06-22T07:20:11;23.60;99.90
4429;DHT22;2227;47.810;8.810;2023-06-22T07:22:40;23.70;99.90
4429;DHT22;2227;47.810;8.810;2023-06-22T07:25:07;23.80;99.90
4429;DHT22;2227;47.810;8.810;2023-06-22T07:27:46;23.90;99.90
4429;DHT22;2227;47.810;8.810;2023-06-22T07:30:14;24.00;99.90
4429;DHT22;2227;47.810;8.810;2023-06-22T07:32:41;24.10;99.90
4429;DHT22;2227;47.810;8.810;2023-06-22T07:35:08;24.20;99.90
4429;DHT22;2227;47.810;8.810;2023-06-22T07:37:35;24.30;99.90
4429;DHT22;2227;47.810;8.810;2023-06-22T07:40:02;24.50;99.90
4429;DHT22;2227;47.810;8.810;2023-06-22T07:42:32;24.70;99.90
4429;DHT22;2227;47.810;8.810;2023-06-22T07:45:00;24.90;99.90
4429;DHT22;2227;47.810;8.810;2023-06-22T07:47:27;25.00;99.90
4429;DHT22;2227;47.810;8.810;2023-06-22T07:49:55;25.20;99.90
4429;DHT22;2227;47.810;8.810;2023-06-22T07:52:24;25.40;99.90
4429;DHT22;2227;47.810;8.810;2023-06-22T07:54:52;25.40;99.90
4429;DHT22;2227;47.810;8.810;2023-06-22T07:57:20;25.10;99.90
4429;DHT22;2227;47.810;8.810;2023-06-22T07:59:47;24.90;99.90
4429;DHT22;2227;47.810;8.810;2023-06-22T08:02:13;24.50;99.90
4429;DHT22;2227;47.810;8.810;2023-06-22T08:04:41;24.40;99.90
4429;DHT22;2227;47.810;8.810;2023-06-22T08:07:07;24.50;99.90
4429;DHT22;2227;47.810;8.810;2023-06-22T08:09:34;24.50;99.90
4429;DHT22;2227;47.810;8.810;2023-06-22T08:12:02;24.30;99.90
4429;DHT22;2227;47.810;8.810;2023-06-22T08:14:29;24.50;99.90
4429;DHT22;2227;47.810;8.810;2023-06-22T08:16:56;24.60;99.90
4429;DHT22;2227;47.810;8.810;2023-06-22T08:19:23;24.60;99.90
4429;DHT22;2227;47.810;8.810;2023-06-22T08:21:50;24.60;99.90
4429;DHT22;2227;47.810;8.810;2023-06-22T08:24:17;24.70;99.90
4429;DHT22;2227;47.810;8.810;2023-06-22T08:26:43;24.90;99.90
4429;DHT22;2227;47.810;8.810;2023-06-22T08:29:10;25.20;99.90
4429;DHT22;2227;47.810;8.810;2023-06-22T08:31:37;25.50;99.90
4429;DHT22;2227;47.810;8.810;2023-06-22T08:34:04;25.80;99.90
4429;DHT22;2227;47.810;8.810;2023-06-22T08:36:30;26.00;99.90
4429;DHT22;2227;47.810;8.810;2023-06-22T08:39:04;26.30;99.90
4429;DHT22;2227;47.810;8.810;2023-06-22T08:41:30;26.50;99.90
4429;DHT22;2227;47.810;8.810;2023-06-22T08:43:57;26.60;99.90
4429;DHT22;2227;47.810;8.810;2023-06-22T08:46:24;26.60;99.90
4429;DHT22;2227;47.810;8.810;2023-06-22T08:48:59;26.60;99.90
4429;DHT22;2227;47.810;8.810;2023-06-22T08:51:26;26.60;99.90
4429;DHT22;2227;47.810;8.810;2023-06-22T08:53:53;26.50;99.90
4429;DHT22;2227;47.810;8.810;2023-06-22T08:56:19;26.20;99.90
4429;DHT22;2227;47.810;8.810;2023-06-22T08:58:46;26.00;99.90
4429;DHT22;2227;47.810;8.810;2023-06-22T09:01:13;26.00;99.90
4429;DHT22;2227;47.810;8.810;2023-06-22T09:03:42;26.40;99.90
4429;DHT22;2227;47.810;8.810;2023-06-22T09:06:09;26.70;99.90
4429;DHT22;2227;47.810;8.810;2023-06-22T09:08:36;27.10;99.90
4429;DHT22;2227;47.810;8.810;2023-06-22T09:11:03;27.10;99.90
4429;DHT22;2227;47.810;8.810;2023-06-22T09:13:30;27.20;99.90
4429;DHT22;2227;47.810;8.810;2023-06-22T09:15:58;27.30;99.90
4429;DHT22;2227;47.810;8.810;2023-06-22T09:18:24;27.50;99.90
4429;DHT22;2227;47.810;8.810;2023-06-22T09:20:51;27.50;99.90
4429;DHT22;2227;47.810;8.810;2023-06-22T09:23:18;27.60;99.90
4429;DHT22;2227;47.810;8.810;2023-06-22T09:25:45;27.60;99.90
4429;DHT22;2227;47.810;8.810;2023-06-22T09:28:14;27.80;99.90
4429;DHT22;2227;47.810;8.810;2023-06-22T09:30:43;27.90;99.90
4429;DHT22;2227;47.810;8.810;2023-06-22T09:33:10;27.80;99.90
4429;DHT22;2227;47.810;8.810;2023-06-22T09:35:37;27.70;99.90
4429;DHT22;2227;47.810;8.810;2023-06-22T09:38:04;27.90;99.90
4429;DHT22;2227;47.810;8.810;2023-06-22T09:40:31;28.30;99.90
4429;DHT22;2227;47.810;8.810;2023-06-22T09:43:01;28.60;99.90
4429;DHT22;2227;47.810;8.810;2023-06-22T09:45:28;29.00;99.90
4429;DHT22;2227;47.810;8.810;2023-06-22T09:47:55;29.30;99.90
4429;DHT22;2227;47.810;8.810;2023-06-22T09:50:22;29.70;99.90
4429;DHT22;2227;47.810;8.810;2023-06-22T09:52:48;29.90;99.90
4429;DHT22;2227;47.810;8.810;2023-06-22T09:55:21;29.50;99.90
4429;DHT22;2227;47.810;8.810;2023-06-22T09:57:48;29.20;99.90
4429;DHT22;2227;47.810;8.810;2023-06-22T10:00:16;29.10;99.90
4429;DHT22;2227;47.810;8.810;2023-06-22T10:02:44;29.10;99.90
4429;DHT22;2227;47.810;8.810;2023-06-22T10:05:11;29.20;99.90
4429;DHT22;2227;47.810;8.810;2023-06-22T10:07:39;29.10;99.90
4429;DHT22;2227;47.810;8.810;2023-06-22T10:10:10;29.10;99.90
4429;DHT22;2227;47.810;8.810;2023-06-22T10:12:41;29.20;99.90
4429;DHT22;2227;47.810;8.810;2023-06-22T10:15:09;29.30;99.90
4429;DHT22;2227;47.810;8.810;2023-06-22T10:17:37;29.10;99.90
4429;DHT22;2227;47.810;8.810;2023-06-22T10:20:05;29.00;99.90
4429;DHT22;2227;47.810;8.810;2023-06-22T10:22:39;29.00;99.90
4429;DHT22;2227;47.810;8.810;2023-06-22T10:25:07;29.00;99.90
4429;DHT22;2227;47.810;8.810;2023-06-22T10:27:34;29.10;99.90
4429;DHT22;2227;47.810;8.810;2023-06-22T10:30:01;29.40;99.90
4429;DHT22;2227;47.810;8.810;2023-06-22T10:32:27;29.90;99.90
4429;DHT22;2227;47.810;8.810;2023-06-22T10:34:55;30.00;99.90
4429;DHT22;2227;47.810;8.810;2023-06-22T10:37:25;29.50;99.90
4429;DHT22;2227;47.810;8.810;2023-06-22T10:39:51;29.80;99.90
4429;DHT22;2227;47.810;8.810;2023-06-22T10:42:18;29.90;99.90
4429;DHT22;2227;47.810;8.810;2023-06-22T10:44:45;29.80;99.90
4429;DHT22;2227;47.810;8.810;2023-06-22T10:47:12;29.80;99.90
4429;DHT22;2227;47.810;8.810;2023-06-22T10:49:39;29.70;99.90
4429;DHT22;2227;47.810;8.810;2023-06-22T10:52:09;29.70;99.90
4429;DHT22;2227;47.810;8.810;2023-06-22T10:54:37;29.70;99.90
4429;DHT22;2227;47.810;8.810;2023-06-22T10:57:04;29.70;99.90
4429;DHT22;2227;47.810;8.810;2023-06-22T10:59:31;29.80;99.90
4429;DHT22;2227;47.810;8.810;2023-06-22T11:01:59;30.00;99.90
4429;DHT22;2227;47.810;8.810;2023-06-22T11:04:25;30.20;99.90
4429;DHT22;2227;47.810;8.810;2023-06-22T11:06:52;30.50;99.90
4429;DHT22;2227;47.810;8.810;2023-06-22T11:09:19;30.70;99.90
4429;DHT22;2227;47.810;8.810;2023-06-22T11:11:55;30.30;99.90
4429;DHT22;2227;47.810;8.810;2023-06-22T11:14:22;30.10;99.90
4429;DHT22;2227;47.810;8.810;2023-06-22T11:16:49;29.90;99.90
4429;DHT22;2227;47.810;8.810;2023-06-22T11:19:16;29.80;99.90
4429;DHT22;2227;47.810;8.810;2023-06-22T11:21:43;29.40;99.90
4429;DHT22;2227;47.810;8.810;2023-06-22T11:24:10;29.30;99.90
4429;DHT22;2227;47.810;8.810;2023-06-22T11:26:37;29.30;99.90
4429;DHT22;2227;47.810;8.810;2023-06-22T11:29:03;29.40;99.90
4429;DHT22;2227;47.810;8.810;2023-06-22T11:31:34;29.40;99.90
4429;DHT22;2227;47.810;8.810;2023-06-22T11:34:02;29.60;99.90
4429;DHT22;2227;47.810;8.810;2023-06-22T11:36:29;29.70;99.90
4429;DHT22;2227;47.810;8.810;2023-06-22T11:38:59;29.80;99.90
4429;DHT22;2227;47.810;8.810;2023-06-22T11:41:26;29.80;99.90
4429;DHT22;2227;47.810;8.810;2023-06-22T11:43:52;29.80;99.90
4429;DHT22;2227;47.810;8.810;2023-06-22T11:46:19;29.80;99.90
4429;DHT22;2227;47.810;8.810;2023-06-22T11:48:47;29.60;99.90
4429;DHT22;2227;47.810;8.810;2023-06-22T11:51:13;29.50;99.90
4429;DHT22;2227;47.810;8.810;2023-06-22T11:53:40;29.70;99.90
4429;DHT22;2227;47.810;8.810;2023-06-22T11:56:07;29.80;99.90
4429;DHT22;2227;47.810;8.810;2023-06-22T11:58:36;29.80;99.90
4429;DHT22;2227;47.810;8.810;2023-06-22T12:01:03;29.70;99.90
4429;DHT22;2227;47.810;8.810;2023-06-22T12:03:29;29.60;99.90
4429;DHT22;2227;47.810;8.810;2023-06-22T12:05:57;29.60;99.90
4429;DHT22;2227;47.810;8.810;2023-06-22T12:08:24;29.50;99.90
4429;DHT22;2227;47.810;8.810;2023-06-22T12:10:51;29.50;99.90
4429;DHT22;2227;47.810;8.810;2023-06-22T12:13:18;29.30;99.90
4429;DHT22;2227;47.810;8.810;2023-06-22T12:15:45;29.00;99.90
4429;DHT22;2227;47.810;8.810;2023-06-22T12:18:12;28.90;99.90
4429;DHT22;2227;47.810;8.810;2023-06-22T12:20:41;28.90;99.90
4429;DHT22;2227;47.810;8.810;2023-06-22T12:23:07;29.00;99.90
4429;DHT22;2227;47.810;8.810;2023-06-22T12:25:34;29.30;99.90
4429;DHT22;2227;47.810;8.810;2023-06-22T12:28:01;29.50;99.90
4429;DHT22;2227;47.810;8.810;2023-06-22T12:30:28;29.60;99.90
4429;DHT22;2227;47.810;8.810;2023-06-22T12:32:55;29.90;99.90
4429;DHT22;2227;47.810;8.810;2023-06-22T12:35:22;29.90;99.90
4429;DHT22;2227;47.810;8.810;2023-06-22T12:37:49;29.90;99.90
4429;DHT22;2227;47.810;8.810;2023-06-22T12:40:16;29.80;99.90
4429;DHT22;2227;47.810;8.810;2023-06-22T12:42:44;29.60;99.90
4429;DHT22;2227;47.810;8.810;2023-06-22T12:45:11;29.30;99.90
4429;DHT22;2227;47.810;8.810;2023-06-22T12:47:37;29.30;99.90
4429;DHT22;2227;47.810;8.810;2023-06-22T12:50:05;29.30;99.90
4429;DHT22;2227;47.810;8.810;2023-06-22T12:52:32;29.50;99.90
4429;DHT22;2227;47.810;8.810;2023-06-22T12:54:58;29.40;99.90
4429;DHT22;2227;47.810;8.810;2023-06-22T12:57:25;29.40;99.90
4429;DHT22;2227;47.810;8.810;2023-06-22T12:59:52;29.50;99.90
4429;DHT22;2227;47.810;8.810;2023-06-22T13:02:20;29.60;99.90
4429;DHT22;2227;47.810;8.810;2023-06-22T13:04:47;29.70;99.90
4429;DHT22;2227;47.810;8.810;2023-06-22T13:07:14;29.80;99.90
4429;DHT22;2227;47.810;8.810;2023-06-22T13:09:50;29.80;99.90
4429;DHT22;2227;47.810;8.810;2023-06-22T13:12:20;29.80;99.90
4429;DHT22;2227;47.810;8.810;2023-06-22T13:14:47;30.00;99.90
4429;DHT22;2227;47.810;8.810;2023-06-22T13:17:15;30.10;99.90
4429;DHT22;2227;47.810;8.810;2023-06-22T13:19:42;30.20;99.90
4429;DHT22;2227;47.810;8.810;2023-06-22T13:22:28;30.40;99.90
4429;DHT22;2227;47.810;8.810;2023-06-22T13:24:56;30.40;99.90
4429;DHT22;2227;47.810;8.810;2023-06-22T13:27:23;30.40;99.90
4429;DHT22;2227;47.810;8.810;2023-06-22T13:29:51;30.50;99.90
4429;DHT22;2227;47.810;8.810;2023-06-22T13:32:35;30.70;99.90
4429;DHT22;2227;47.810;8.810;2023-06-22T13:35:19;30.80;99.90
4429;DHT22;2227;47.810;8.810;2023-06-22T13:37:46;31.00;99.90
4429;DHT22;2227;47.810;8.810;2023-06-22T13:40:31;31.10;99.90
4429;DHT22;2227;47.810;8.810;2023-06-22T13:43:17;31.20;99.90
4429;DHT22;2227;47.810;8.810;2023-06-22T13:45:44;31.30;99.90
4429;DHT22;2227;47.810;8.810;2023-06-22T13:48:10;31.50;99.90
4429;DHT22;2227;47.810;8.810;2023-06-22T13:50:54;31.30;99.90
4429;DHT22;2227;47.810;8.810;2023-06-22T13:53:21;31.30;99.90
4429;DHT22;2227;47.810;8.810;2023-06-22T13:55:48;31.30;99.90
4429;DHT22;2227;47.810;8.810;2023-06-22T13:58:15;31.50;99.70
4429;DHT22;2227;47.810;8.810;2023-06-22T14:00:41;31.30;99.20
4429;DHT22;2227;47.810;8.810;2023-06-22T14:03:08;31.50;99.90
4429;DHT22;2227;47.810;8.810;2023-06-22T14:05:35;31.40;99.90
4429;DHT22;2227;47.810;8.810;2023-06-22T14:08:02;31.20;99.80
4429;DHT22;2227;47.810;8.810;2023-06-22T14:10:34;31.00;99.90
4429;DHT22;2227;47.810;8.810;2023-06-22T14:13:01;30.90;99.90
4429;DHT22;2227;47.810;8.810;2023-06-22T14:15:28;30.90;99.90
4429;DHT22;2227;47.810;8.810;2023-06-22T14:17:55;30.60;99.90
4429;DHT22;2227;47.810;8.810;2023-06-22T14:20:21;30.60;99.70
4429;DHT22;2227;47.810;8.810;2023-06-22T14:22:48;30.40;99.70
4429;DHT22;2227;47.810;8.810;2023-06-22T14:25:15;30.30;99.90
4429;DHT22;2227;47.810;8.810;2023-06-22T14:27:42;30.20;99.90
4429;DHT22;2227;47.810;8.810;2023-06-22T14:30:09;30.10;99.90
4429;DHT22;2227;47.810;8.810;2023-06-22T14:32:36;29.90;99.90
4429;DHT22;2227;47.810;8.810;2023-06-22T14:35:03;29.70;99.90
4429;DHT22;2227;47.810;8.810;2023-06-22T14:37:30;29.60;99.90
4429;DHT22;2227;47.810;8.810;2023-06-22T14:39:57;29.30;99.90
4429;DHT22;2227;47.810;8.810;2023-06-22T14:42:24;29.10;99.90
4429;DHT22;2227;47.810;8.810;2023-06-22T14:44:53;28.70;99.90
4429;DHT22;2227;47.810;8.810;2023-06-22T14:47:19;28.60;99.90
4429;DHT22;2227;47.810;8.810;2023-06-22T14:49:48;28.40;99.90
4429;DHT22;2227;47.810;8.810;2023-06-22T14:52:15;28.30;99.90
4429;DHT22;2227;47.810;8.810;2023-06-22T14:54:41;28.20;99.90
4429;DHT22;2227;47.810;8.810;2023-06-22T14:57:08;27.90;99.90
4429;DHT22;2227;47.810;8.810;2023-06-22T14:59:35;27.80;99.90
4429;DHT22;2227;47.810;8.810;2023-06-22T15:02:02;27.70;99.90
4429;DHT22;2227;47.810;8.810;2023-06-22T15:04:28;27.60;99.90
4429;DHT22;2227;47.810;8.810;2023-06-22T15:07:01;27.40;99.90
4429;DHT22;2227;47.810;8.810;2023-06-22T15:09:28;27.40;99.90
4429;DHT22;2227;47.810;8.810;2023-06-22T15:11:55;27.20;99.90
4429;DHT22;2227;47.810;8.810;2023-06-22T15:14:21;27.10;99.90
4429;DHT22;2227;47.810;8.810;2023-06-22T15:16:48;27.00;99.90
4429;DHT22;2227;47.810;8.810;2023-06-22T15:19:15;26.90;99.90
4429;DHT22;2227;47.810;8.810;2023-06-22T15:21:42;26.90;99.90
4429;DHT22;2227;47.810;8.810;2023-06-22T15:24:09;27.00;99.90
4429;DHT22;2227;47.810;8.810;2023-06-22T15:26:36;27.10;99.90
4429;DHT22;2227;47.810;8.810;2023-06-22T15:29:03;27.30;99.90
4429;DHT22;2227;47.810;8.810;2023-06-22T15:31:29;27.40;99.90
4429;DHT22;2227;47.810;8.810;2023-06-22T15:33:56;27.30;99.90
4429;DHT22;2227;47.810;8.810;2023-06-22T15:36:23;27.30;99.90
4429;DHT22;2227;47.810;8.810;2023-06-22T15:38:50;27.20;99.90
4429;DHT22;2227;47.810;8.810;2023-06-22T15:41:17;27.20;99.90
4429;DHT22;2227;47.810;8.810;2023-06-22T15:43:43;27.20;99.90
4429;DHT22;2227;47.810;8.810;2023-06-22T15:46:10;27.10;99.90
4429;DHT22;2227;47.810;8.810;2023-06-22T15:48:37;27.20;99.90
4429;DHT22;2227;47.810;8.810;2023-06-22T15:51:03;27.20;99.90
4429;DHT22;2227;47.810;8.810;2023-06-22T15:53:30;27.10;99.90
4429;DHT22;2227;47.810;8.810;2023-06-22T15:55:57;27.10;99.90
4429;DHT22;2227;47.810;8.810;2023-06-22T15:58:24;27.00;99.90
4429;DHT22;2227;47.810;8.810;2023-06-22T16:00:51;26.90;99.90
4429;DHT22;2227;47.810;8.810;2023-06-22T16:03:19;26.70;99.90
4429;DHT22;2227;47.810;8.810;2023-06-22T16:05:46;26.60;99.90
4429;DHT22;2227;47.810;8.810;2023-06-22T16:08:13;26.50;99.90
4429;DHT22;2227;47.810;8.810;2023-06-22T16:10:40;26.40;99.90
4429;DHT22;2227;47.810;8.810;2023-06-22T16:13:07;26.30;99.90
4429;DHT22;2227;47.810;8.810;2023-06-22T16:15:33;26.20;99.90
4429;DHT22;2227;47.810;8.810;2023-06-22T16:18:00;26.10;99.90
4429;DHT22;2227;47.810;8.810;2023-06-22T16:20:27;26.10;99.90
4429;DHT22;2227;47.810;8.810;2023-06-22T16:22:54;26.00;99.90
4429;DHT22;2227;47.810;8.810;2023-06-22T16:25:21;26.00;99.90
4429;DHT22;2227;47.810;8.810;2023-06-22T16:27:48;26.00;99.90
4429;DHT22;2227;47.810;8.810;2023-06-22T16:30:14;26.10;99.90
4429;DHT22;2227;47.810;8.810;2023-06-22T16:32:54;26.10;99.90
4429;DHT22;2227;47.810;8.810;2023-06-22T16:35:25;26.00;99.90
4429;DHT22;2227;47.810;8.810;2023-06-22T16:37:58;25.80;99.90
4429;DHT22;2227;47.810;8.810;2023-06-22T16:40:25;25.80;99.90
4429;DHT22;2227;47.810;8.810;2023-06-22T16:42:52;25.80;99.90
4429;DHT22;2227;47.810;8.810;2023-06-22T16:45:19;25.80;99.90
4429;DHT22;2227;47.810;8.810;2023-06-22T16:47:48;25.90;99.90
4429;DHT22;2227;47.810;8.810;2023-06-22T16:50:16;25.80;99.90
4429;DHT22;2227;47.810;8.810;2023-06-22T16:52:43;25.80;99.90
4429;DHT22;2227;47.810;8.810;2023-06-22T16:55:10;25.80;99.90
4429;DHT22;2227;47.810;8.810;2023-06-22T16:57:37;25.60;99.90
4429;DHT22;2227;47.810;8.810;2023-06-22T17:00:05;25.60;99.90
4429;DHT22;2227;47.810;8.810;2023-06-22T17:02:42;25.60;99.90
4429;DHT22;2227;47.810;8.810;2023-06-22T17:05:11;25.60;99.90
4429;DHT22;2227;47.810;8.810;2023-06-22T17:07:39;25.50;99.90
4429;DHT22;2227;47.810;8.810;2023-06-22T17:10:11;25.40;99.90
4429;DHT22;2227;47.810;8.810;2023-06-22T17:12:39;25.20;99.90
4429;DHT22;2227;47.810;8.810;2023-06-22T17:15:09;25.00;99.90
4429;DHT22;2227;47.810;8.810;2023-06-22T17:17:38;24.50;99.90
4429;DHT22;2227;47.810;8.810;2023-06-22T17:20:05;24.20;99.90
4429;DHT22;2227;47.810;8.810;2023-06-22T17:22:32;23.80;99.90
4429;DHT22;2227;47.810;8.810;2023-06-22T17:25:03;23.60;99.90
4429;DHT22;2227;47.810;8.810;2023-06-22T17:27:29;23.30;99.90
4429;DHT22;2227;47.810;8.810;2023-06-22T17:30:10;23.20;99.90
4429;DHT22;2227;47.810;8.810;2023-06-22T17:32:37;23.20;99.90
4429;DHT22;2227;47.810;8.810;2023-06-22T17:35:04;23.20;99.90
4429;DHT22;2227;47.810;8.810;2023-06-22T17:40:15;23.00;99.90
4429;DHT22;2227;47.810;8.810;2023-06-22T17:42:42;23.00;99.90
4429;DHT22;2227;47.810;8.810;2023-06-22T17:45:29;22.90;99.90
4429;DHT22;2227;47.810;8.810;2023-06-22T17:47:56;22.90;99.90
4429;DHT22;2227;47.810;8.810;2023-06-22T17:50:24;22.80;99.90
4429;DHT22;2227;47.810;8.810;2023-06-22T17:52:55;22.60;99.90
4429;DHT22;2227;47.810;8.810;2023-06-22T17:55:27;22.60;99.90
4429;DHT22;2227;47.810;8.810;2023-06-22T17:57:56;22.50;99.90
4429;DHT22;2227;47.810;8.810;2023-06-22T18:00:25;22.40;99.90
4429;DHT22;2227;47.810;8.810;2023-06-22T18:02:52;22.20;99.90
4429;DHT22;2227;47.810;8.810;2023-06-22T18:05:48;22.00;99.90
4429;DHT22;2227;47.810;8.810;2023-06-22T18:08:16;22.10;99.90
4429;DHT22;2227;47.810;8.810;2023-06-22T18:10:46;22.20;99.90
4429;DHT22;2227;47.810;8.810;2023-06-22T18:13:13;22.10;99.90
4429;DHT22;2227;47.810;8.810;2023-06-22T18:15:41;22.10;99.90
4429;DHT22;2227;47.810;8.810;2023-06-22T18:18:09;22.10;99.90
4429;DHT22;2227;47.810;8.810;2023-06-22T18:20:39;22.00;99.90
4429;DHT22;2227;47.810;8.810;2023-06-22T18:23:09;21.90;99.90
4429;DHT22;2227;47.810;8.810;2023-06-22T18:25:42;21.80;99.90
4429;DHT22;2227;47.810;8.810;2023-06-22T18:28:12;21.70;99.90
4429;DHT22;2227;47.810;8.810;2023-06-22T18:30:42;21.60;99.90
4429;DHT22;2227;47.810;8.810;2023-06-22T18:33:09;21.60;99.90
4429;DHT22;2227;47.810;8.810;2023-06-22T18:35:37;21.50;99.90
4429;DHT22;2227;47.810;8.810;2023-06-22T18:38:04;21.50;99.90
4429;DHT22;2227;47.810;8.810;2023-06-22T18:40:32;21.50;99.90
4429;DHT22;2227;47.810;8.810;2023-06-22T18:42:59;21.50;99.90
4429;DHT22;2227;47.810;8.810;2023-06-22T18:45:28;21.50;99.90
4429;DHT22;2227;47.810;8.810;2023-06-22T18:48:04;21.50;99.90
4429;DHT22;2227;47.810;8.810;2023-06-22T18:50:36;21.60;99.90
4429;DHT22;2227;47.810;8.810;2023-06-22T18:53:04;21.60;99.90
4429;DHT22;2227;47.810;8.810;2023-06-22T18:55:31;21.50;99.90
4429;DHT22;2227;47.810;8.810;2023-06-22T18:58:16;21.50;99.90
4429;DHT22;2227;47.810;8.810;2023-06-22T19:00:45;21.40;99.90
4429;DHT22;2227;47.810;8.810;2023-06-22T19:03:28;21.20;99.90
4429;DHT22;2227;47.810;8.810;2023-06-22T19:05:56;21.10;99.90
4429;DHT22;2227;47.810;8.810;2023-06-22T19:08:22;21.10;99.90
4429;DHT22;2227;47.810;8.810;2023-06-22T19:10:50;21.00;99.90
4429;DHT22;2227;47.810;8.810;2023-06-22T19:13:26;20.90;99.90
4429;DHT22;2227;47.810;8.810;2023-06-22T19:15:58;20.80;99.90
4429;DHT22;2227;47.810;8.810;2023-06-22T19:21:01;20.70;99.90
4429;DHT22;2227;47.810;8.810;2023-06-22T19:23:30;20.70;99.90
4429;DHT22;2227;47.810;8.810;2023-06-22T19:25:58;20.70;99.90
4429;DHT22;2227;47.810;8.810;2023-06-22T19:28:31;20.70;99.90
4429;DHT22;2227;47.810;8.810;2023-06-22T19:31:02;20.70;99.90
4429;DHT22;2227;47.810;8.810;2023-06-22T19:33:30;20.70;99.90
4429;DHT22;2227;47.810;8.810;2023-06-22T19:36:02;20.70;99.90
4429;DHT22;2227;47.810;8.810;2023-06-22T19:38:29;20.80;99.90
4429;DHT22;2227;47.810;8.810;2023-06-22T19:40:57;20.80;99.90
4429;DHT22;2227;47.810;8.810;2023-06-22T19:43:29;20.80;99.90
4429;DHT22;2227;47.810;8.810;2023-06-22T19:45:56;20.90;99.90
4429;DHT22;2227;47.810;8.810;2023-06-22T19:48:25;20.90;99.90
4429;DHT22;2227;47.810;8.810;2023-06-22T19:50:53;20.90;99.90
4429;DHT22;2227;47.810;8.810;2023-06-22T19:53:22;21.00;99.90
4429;DHT22;2227;47.810;8.810;2023-06-22T19:55:49;21.00;99.90
4429;DHT22;2227;47.810;8.810;2023-06-22T19:58:19;21.10;99.90
4429;DHT22;2227;47.810;8.810;2023-06-22T20:00:47;21.00;99.90
4429;DHT22;2227;47.810;8.810;2023-06-22T20:03:38;20.90;99.90